createdAt,value
2018-12-03T00:02:25.859Z,-0.40
2018-12-03T00:04:56.319Z,-0.50
2018-12-03T00:07:26.400Z,-0.50
2018-12-03T00:09:56.440Z,-0.50
2018-12-03T00:12:26.781Z,-0.50
2018-12-03T00:14:56.960Z,-0.50
2018-12-03T00:17:27.000Z,-0.50
2018-12-03T00:19:56.901Z,-0.40
2018-12-03T00:22:26.765Z,-0.40
2018-12-03T00:24:56.961Z,-0.40
2018-12-03T00:27:26.620Z,-0.40
2018-12-03T00:29:56.223Z,-0.40
2018-12-03T00:32:26.180Z,-0.40
2018-12-03T00:34:55.982Z,-0.40
2018-12-03T00:37:26.060Z,-0.50
2018-12-03T00:39:56.900Z,-0.50
2018-12-03T00:42:28.425Z,-0.50
2018-12-03T00:44:58.235Z,-0.50
2018-12-03T00:47:28.355Z,-0.50
2018-12-03T00:49:57.974Z,-0.50
2018-12-03T00:52:28.454Z,-0.50
2018-12-03T00:54:58.016Z,-0.50
2018-12-03T00:57:27.914Z,-0.50
2018-12-03T00:59:57.755Z,-0.50
2018-12-03T01:02:27.844Z,-0.50
2018-12-03T01:04:58.241Z,-0.50
2018-12-03T01:07:27.891Z,-0.50
2018-12-03T01:09:59.641Z,-0.50
2018-12-03T01:12:29.639Z,-0.60
2018-12-03T01:14:59.481Z,-0.60
2018-12-03T01:17:29.579Z,-0.60
2018-12-03T01:19:59.221Z,-0.60
2018-12-03T01:22:30.761Z,-0.60
2018-12-03T01:25:00.780Z,-0.60
2018-12-03T01:27:30.444Z,-0.50
2018-12-03T01:30:00.683Z,-0.50
2018-12-03T01:32:30.717Z,-0.50
2018-12-03T01:35:00.297Z,-0.50
2018-12-03T01:37:30.657Z,-0.50
2018-12-03T01:40:00.398Z,-0.50
2018-12-03T01:42:30.057Z,-0.50
2018-12-03T01:45:00.216Z,-0.50
2018-12-03T01:47:29.979Z,-0.50
2018-12-03T01:49:59.896Z,-0.50
2018-12-03T01:52:30.056Z,-0.40
2018-12-03T01:54:59.818Z,-0.40
2018-12-03T01:57:30.836Z,-0.30
2018-12-03T02:00:00.557Z,-0.30
2018-12-03T02:02:30.384Z,-0.20
2018-12-03T02:05:00.137Z,-0.20
2018-12-03T02:07:30.397Z,-0.10
2018-12-03T02:11:06.337Z,-0.20
2018-12-03T02:16:11.897Z,-0.10
2018-12-03T02:21:18.718Z,-0.10
2018-12-03T02:23:58.736Z,-0.10
2018-12-03T02:29:06.876Z,-0.10
2018-12-03T02:31:42.077Z,0.10
2018-12-03T02:34:19.877Z,0.10
2018-12-03T02:36:56.317Z,0.10
2018-12-03T02:39:35.136Z,0.10
2018-12-03T02:44:43.118Z,0.10
2018-12-03T02:47:14.637Z,0.00
2018-12-03T02:49:47.515Z,0.00
2018-12-03T02:52:19.134Z,0.00
2018-12-03T02:54:57.316Z,0.00
2018-12-03T02:57:31.034Z,0.00
2018-12-03T03:00:08.327Z,0.00
2018-12-03T03:02:40.640Z,0.10
2018-12-03T03:05:15.206Z,0.00
2018-12-03T03:07:46.300Z,0.10
2018-12-03T03:10:24.421Z,0.20
2018-12-03T03:15:39.620Z,0.20
2018-12-03T03:18:14.080Z,0.20
2018-12-03T03:20:52.373Z,0.20
2018-12-03T03:23:29.804Z,0.20
2018-12-03T03:26:01.900Z,0.30
2018-12-03T03:28:38.220Z,0.30
2018-12-03T03:31:12.939Z,0.40
2018-12-03T03:36:24.935Z,0.50
2018-12-03T03:39:00.435Z,0.40
2018-12-03T03:41:37.618Z,0.40
2018-12-03T03:44:11.056Z,0.40
2018-12-03T03:46:45.570Z,0.30
2018-12-03T03:49:22.095Z,0.30
2018-12-03T03:51:59.155Z,0.30
2018-12-03T03:54:33.595Z,0.30
2018-12-03T03:57:09.456Z,0.40
2018-12-03T03:59:44.357Z,0.40
2018-12-03T04:02:19.216Z,0.40
2018-12-03T04:07:29.598Z,0.40
2018-12-03T04:10:01.259Z,0.40
2018-12-03T04:12:37.067Z,0.40
2018-12-03T04:15:11.339Z,0.40
2018-12-03T04:17:46.777Z,0.30
2018-12-03T04:20:31.998Z,0.30
2018-12-03T04:23:06.797Z,0.20
2018-12-03T04:25:42.936Z,0.20
2018-12-03T04:28:21.858Z,0.20
2018-12-03T04:30:59.257Z,0.20
2018-12-03T04:33:33.956Z,0.10
2018-12-03T04:36:10.777Z,0.20
2018-12-03T04:38:43.557Z,0.20
2018-12-03T04:41:21.316Z,0.30
2018-12-03T04:43:55.977Z,0.30
2018-12-03T04:46:29.180Z,0.20
2018-12-03T04:49:03.538Z,0.20
2018-12-03T04:54:09.078Z,0.30
2018-12-03T04:59:15.897Z,0.50
2018-12-03T05:04:29.726Z,1.00
2018-12-03T05:07:03.623Z,1.30
2018-12-03T05:09:38.234Z,1.40
2018-12-03T05:12:12.814Z,1.50
2018-12-03T05:14:47.076Z,1.50
2018-12-03T05:17:22.296Z,1.50
2018-12-03T05:19:58.594Z,1.50
2018-12-03T05:22:31.977Z,1.50
2018-12-03T05:25:05.099Z,1.40
2018-12-03T05:32:50.896Z,1.50
2018-12-03T05:35:25.635Z,1.70
2018-12-03T05:38:01.596Z,2.00
2018-12-03T05:40:36.917Z,2.10
2018-12-03T05:43:12.996Z,2.20
2018-12-03T05:45:50.436Z,2.10
2018-12-03T05:50:58.115Z,1.90
2018-12-03T05:53:34.776Z,1.80
2018-12-03T05:56:09.636Z,1.70
2018-12-03T05:58:41.676Z,1.60
2018-12-03T06:01:19.584Z,1.60
2018-12-03T06:03:52.144Z,1.60
2018-12-03T06:06:33.225Z,1.50
2018-12-03T06:09:13.190Z,1.50
2018-12-03T06:14:24.104Z,1.40
2018-12-03T06:17:01.466Z,1.30
2018-12-03T06:22:07.406Z,1.40
2018-12-03T06:24:41.806Z,1.40
2018-12-03T06:27:16.072Z,1.50
2018-12-03T06:32:21.235Z,1.70
2018-12-03T06:37:31.522Z,1.90
2018-12-03T06:40:05.242Z,2.00
2018-12-03T06:42:40.722Z,2.10
2018-12-03T06:47:47.777Z,2.10
2018-12-03T06:50:24.536Z,2.00
2018-12-03T06:52:56.999Z,1.90
2018-12-03T06:58:09.218Z,1.80
2018-12-03T07:00:44.125Z,1.80
2018-12-03T07:03:23.571Z,1.90
2018-12-03T07:05:54.843Z,1.90
2018-12-03T07:08:31.077Z,2.00
2018-12-03T07:11:04.106Z,2.10
2018-12-03T07:13:42.020Z,2.20
2018-12-03T07:16:18.662Z,2.20
2018-12-03T07:18:52.471Z,2.00
2018-12-03T07:21:27.554Z,1.80
2018-12-03T07:26:37.205Z,1.70
2018-12-03T07:29:14.164Z,1.70
2018-12-03T07:31:52.404Z,1.70
2018-12-03T07:34:28.109Z,1.70
2018-12-03T07:37:05.544Z,1.70
2018-12-03T07:42:17.286Z,1.60
2018-12-03T07:44:51.244Z,1.60
2018-12-03T07:47:27.163Z,1.60
2018-12-03T07:50:04.086Z,1.70
2018-12-03T07:52:36.639Z,1.80
2018-12-03T07:55:11.589Z,1.80
2018-12-03T08:02:59.865Z,1.80
2018-12-03T08:05:31.502Z,1.80
2018-12-03T08:08:05.942Z,1.90
2018-12-03T08:10:39.441Z,1.90
2018-12-03T08:13:13.539Z,2.00
2018-12-03T08:18:21.467Z,2.30
2018-12-03T08:23:31.763Z,2.50
2018-12-03T08:26:06.342Z,2.60
2018-12-03T08:28:44.042Z,2.70
2018-12-03T08:31:20.006Z,2.70
2018-12-03T08:33:54.682Z,2.70
2018-12-03T08:39:00.458Z,2.70
2018-12-03T08:44:08.376Z,2.70
2018-12-03T08:54:37.397Z,2.70
2018-12-03T08:57:18.377Z,2.80
2018-12-03T08:59:54.640Z,2.80
2018-12-03T09:05:12.062Z,3.00
2018-12-03T09:07:46.543Z,3.20
2018-12-03T09:15:30.785Z,3.60
2018-12-03T09:20:43.979Z,3.80
2018-12-03T09:23:21.018Z,3.80
2018-12-03T09:31:05.700Z,3.80
2018-12-03T09:33:44.042Z,3.70
2018-12-03T09:36:19.141Z,3.70
2018-12-03T09:38:53.840Z,3.80
2018-12-03T09:41:29.201Z,4.00
2018-12-03T09:44:04.100Z,4.10
2018-12-03T09:46:48.000Z,4.10
2018-12-03T09:49:27.361Z,4.20
2018-12-03T09:52:03.236Z,4.20
2018-12-03T09:54:39.816Z,4.20
2018-12-03T09:57:14.877Z,4.30
2018-12-03T10:02:24.849Z,4.50
2018-12-03T10:05:03.963Z,4.60
2018-12-03T10:07:38.603Z,4.80
2018-12-03T10:10:09.782Z,4.80
2018-12-03T10:12:49.282Z,4.80
2018-12-03T10:15:25.142Z,4.80
2018-12-03T10:18:03.582Z,4.70
2018-12-03T10:20:34.766Z,4.70
2018-12-03T10:23:14.222Z,4.80
2018-12-03T10:28:24.957Z,4.80
2018-12-03T10:31:03.999Z,4.80
2018-12-03T10:33:38.295Z,4.80
2018-12-03T10:38:50.756Z,4.90
2018-12-03T10:41:28.958Z,5.00
2018-12-03T10:44:04.816Z,5.00
2018-12-03T10:46:39.317Z,5.00
2018-12-03T10:49:18.459Z,5.10
2018-12-03T10:51:55.176Z,5.10
2018-12-03T10:54:29.760Z,5.20
2018-12-03T10:57:04.356Z,5.10
2018-12-03T11:02:09.321Z,5.50
2018-12-03T11:04:44.135Z,5.70
2018-12-03T11:17:51.996Z,6.50
2018-12-03T11:20:28.136Z,6.70
2018-12-03T11:23:12.536Z,6.90
2018-12-03T11:25:50.476Z,7.10
2018-12-03T11:28:25.655Z,7.30
2018-12-03T11:33:39.195Z,7.50
2018-12-03T11:36:19.657Z,7.60
2018-12-03T11:38:56.356Z,7.60
2018-12-03T11:44:10.738Z,7.60
2018-12-03T11:46:42.855Z,7.50
2018-12-03T11:49:17.175Z,7.50
2018-12-03T11:51:53.275Z,7.60
2018-12-03T11:54:30.875Z,7.60
2018-12-03T11:57:04.776Z,7.60
2018-12-03T11:59:39.096Z,7.60
2018-12-03T12:04:44.801Z,7.70
2018-12-03T12:09:56.475Z,8.00
2018-12-03T12:12:35.095Z,8.10
2018-12-03T12:15:10.336Z,8.20
2018-12-03T12:17:44.316Z,8.20
2018-12-03T12:23:06.497Z,8.30
2018-12-03T12:25:43.604Z,8.30
2018-12-03T12:28:22.035Z,8.30
2018-12-03T12:31:05.935Z,8.40
2018-12-03T12:33:41.836Z,8.60
2018-12-03T12:41:35.996Z,8.90
2018-12-03T12:44:09.954Z,9.00
2018-12-03T12:46:42.294Z,8.90
2018-12-03T12:51:55.499Z,8.90
2018-12-03T12:54:29.778Z,9.00
2018-12-03T12:59:37.174Z,8.90
2018-12-03T13:04:55.016Z,8.90
2018-12-03T13:10:05.196Z,9.00
2018-12-03T13:15:14.234Z,9.10
2018-12-03T13:17:52.995Z,9.10
2018-12-03T13:20:27.234Z,9.00
2018-12-03T13:25:45.094Z,9.00
2018-12-03T13:28:16.695Z,9.00
2018-12-03T13:30:51.494Z,9.00
2018-12-03T13:33:27.916Z,8.90
2018-12-03T13:36:05.513Z,8.90
2018-12-03T13:43:58.179Z,8.90
2018-12-03T13:49:12.974Z,8.80
2018-12-03T13:51:48.834Z,8.80
2018-12-03T13:54:24.173Z,8.80
2018-12-03T13:56:59.376Z,8.70
2018-12-03T13:59:34.275Z,8.70
2018-12-03T14:02:10.903Z,8.70
2018-12-03T14:04:42.883Z,8.60
2018-12-03T14:07:20.044Z,8.60
2018-12-03T14:12:36.182Z,8.50
2018-12-03T14:15:15.743Z,8.50
2018-12-03T14:17:49.882Z,8.50
2018-12-03T14:22:55.683Z,8.50
2018-12-03T14:28:05.222Z,8.30
2018-12-03T14:30:40.361Z,8.20
2018-12-03T14:35:46.922Z,8.00
2018-12-03T14:38:21.392Z,7.90
2018-12-03T14:40:58.942Z,7.80
2018-12-03T14:43:34.083Z,7.80
2018-12-03T14:46:08.604Z,7.80
2018-12-03T14:48:45.783Z,7.80
2018-12-03T14:51:17.943Z,7.80
2018-12-03T14:54:02.562Z,7.70
2018-12-03T14:56:38.762Z,7.60
2018-12-03T15:01:51.316Z,7.50
2018-12-03T15:07:00.983Z,7.40
2018-12-03T15:09:32.779Z,7.40
2018-12-03T15:12:14.178Z,7.40
2018-12-03T15:14:50.715Z,7.40
2018-12-03T15:17:27.915Z,7.40
2018-12-03T15:20:05.194Z,7.40
2018-12-03T15:22:45.959Z,7.40
2018-12-03T15:25:22.756Z,7.40
2018-12-03T15:27:58.075Z,7.40
2018-12-03T15:30:37.435Z,7.40
2018-12-03T15:33:10.094Z,7.40
2018-12-03T15:38:19.915Z,7.00
2018-12-03T15:40:56.895Z,6.90
2018-12-03T15:43:27.836Z,6.80
2018-12-03T15:45:59.718Z,6.80
2018-12-03T15:48:37.296Z,6.70
2018-12-03T15:53:48.256Z,6.70
2018-12-03T15:59:10.314Z,6.70
2018-12-03T16:01:47.276Z,6.70
2018-12-03T16:04:22.641Z,6.80
2018-12-03T16:09:31.500Z,6.80
2018-12-03T16:12:09.637Z,6.80
2018-12-03T16:14:46.416Z,6.70
2018-12-03T16:17:20.252Z,6.60
2018-12-03T16:19:55.436Z,6.60
2018-12-03T16:22:32.976Z,6.60
2018-12-03T16:33:04.819Z,6.40
2018-12-03T16:35:39.678Z,6.20
2018-12-03T16:43:39.180Z,6.10
2018-12-03T16:46:15.453Z,6.10
2018-12-03T16:51:25.713Z,6.10
2018-12-03T16:53:59.664Z,6.10
2018-12-03T16:56:38.676Z,6.30
2018-12-03T16:59:14.835Z,6.30
2018-12-03T17:01:51.797Z,6.40
2018-12-03T17:04:26.403Z,6.50
2018-12-03T17:07:03.357Z,6.60
2018-12-03T17:12:26.878Z,6.80
2018-12-03T17:17:42.369Z,6.80
2018-12-03T17:20:23.984Z,6.90
2018-12-03T17:22:59.262Z,6.80
2018-12-03T17:28:14.630Z,6.80
2018-12-03T17:33:28.878Z,6.70
2018-12-03T17:38:49.183Z,6.70
2018-12-03T17:44:09.562Z,6.60
2018-12-03T17:49:18.922Z,6.50
2018-12-03T17:51:54.087Z,6.40
2018-12-03T17:54:32.848Z,6.40
2018-12-03T17:57:06.503Z,6.40
2018-12-03T17:59:44.382Z,6.30
2018-12-03T18:04:55.282Z,6.20
2018-12-03T18:10:15.483Z,6.10
2018-12-03T18:15:28.044Z,6.10
2018-12-03T18:18:04.885Z,6.10
2018-12-03T18:20:44.455Z,6.20
2018-12-03T18:23:25.474Z,6.20
2018-12-03T18:26:02.274Z,6.30
2018-12-03T18:28:33.934Z,6.30
2018-12-03T18:31:14.776Z,6.30
2018-12-03T18:33:51.576Z,6.30
2018-12-03T18:36:35.758Z,6.20
2018-12-03T18:39:09.675Z,6.20
2018-12-03T18:47:07.158Z,6.20
2018-12-03T18:49:39.907Z,6.20
2018-12-03T18:52:26.082Z,6.20
2018-12-03T18:55:02.553Z,6.20
2018-12-03T18:57:34.789Z,6.20
2018-12-03T19:00:06.891Z,6.20
2018-12-03T19:02:39.162Z,6.10
2018-12-03T19:05:10.945Z,6.10
2018-12-03T19:10:34.241Z,6.10
2018-12-03T19:13:08.039Z,6.00
2018-12-03T19:15:47.009Z,6.20
2018-12-03T19:18:20.776Z,6.10
2018-12-03T19:21:01.394Z,6.10
2018-12-03T19:23:41.241Z,6.00
2018-12-03T19:26:13.610Z,6.00
2018-12-03T19:28:45.359Z,6.00
2018-12-03T19:31:22.728Z,6.10
2018-12-03T19:39:23.058Z,6.10
2018-12-03T19:50:05.718Z,6.20
2018-12-03T19:52:38.819Z,6.20
2018-12-03T19:55:15.584Z,6.10
2018-12-03T19:57:59.982Z,6.10
2018-12-03T20:00:36.902Z,6.00
2018-12-03T20:03:12.453Z,5.90
2018-12-03T20:05:49.863Z,5.90
2018-12-03T20:08:25.376Z,5.90
2018-12-03T20:11:02.459Z,5.90
2018-12-03T20:16:17.598Z,5.90
2018-12-03T20:18:53.487Z,5.90
2018-12-03T20:21:30.552Z,5.90
2018-12-03T20:24:05.042Z,5.90
2018-12-03T20:26:42.002Z,5.90
2018-12-03T20:29:13.329Z,5.90
2018-12-03T20:34:22.483Z,6.00
2018-12-03T20:34:25.340Z,5.90
2018-12-03T20:37:05.150Z,6.00
2018-12-03T20:39:38.880Z,6.00
2018-12-03T20:42:26.401Z,6.00
2018-12-03T20:45:01.427Z,6.00
2018-12-03T20:50:09.555Z,6.10
2018-12-03T20:52:47.447Z,6.10
2018-12-03T21:05:47.877Z,5.70
2018-12-03T21:08:25.977Z,5.60
2018-12-03T21:10:57.579Z,5.60
2018-12-03T21:13:33.402Z,5.70
2018-12-03T21:16:04.779Z,5.90
2018-12-03T21:18:39.802Z,5.90
2018-12-03T21:21:15.543Z,5.90
2018-12-03T21:23:48.181Z,5.90
2018-12-03T21:26:26.508Z,5.70
2018-12-03T21:31:33.752Z,5.40
2018-12-03T21:34:08.297Z,5.40
2018-12-03T21:36:42.204Z,5.50
2018-12-03T21:39:15.555Z,5.40
2018-12-03T21:41:53.575Z,5.40
2018-12-03T21:44:25.878Z,5.40
2018-12-03T21:46:58.554Z,5.30
2018-12-03T21:49:32.275Z,5.20
2018-12-03T21:52:10.454Z,5.10
2018-12-03T21:57:23.494Z,4.90
2018-12-03T21:59:58.934Z,4.90
2018-12-03T22:02:35.381Z,4.80
2018-12-03T22:05:06.540Z,4.80
2018-12-03T22:10:19.403Z,5.00
2018-12-03T22:12:56.741Z,5.00
2018-12-03T22:18:07.340Z,5.00
2018-12-03T22:20:46.462Z,5.00
2018-12-03T22:23:20.499Z,5.00
2018-12-03T22:25:56.719Z,5.00
2018-12-03T22:28:31.084Z,4.90
2018-12-03T22:33:36.216Z,4.70
2018-12-03T22:36:10.136Z,4.60
2018-12-03T22:38:40.898Z,4.50
2018-12-03T22:41:12.679Z,4.40
2018-12-03T22:43:44.958Z,4.30
2018-12-03T22:46:21.117Z,4.20
2018-12-03T22:48:53.315Z,4.10
2018-12-03T22:51:28.317Z,4.00
2018-12-03T22:54:06.077Z,3.70
2018-12-03T22:56:39.956Z,3.50
2018-12-03T22:59:19.797Z,3.50
2018-12-03T23:01:53.923Z,3.50
2018-12-03T23:07:01.761Z,3.50
2018-12-03T23:09:32.921Z,3.50
2018-12-03T23:12:08.100Z,3.60
2018-12-03T23:14:41.601Z,3.70
2018-12-03T23:17:15.840Z,3.70
2018-12-03T23:22:25.720Z,3.80
2018-12-03T23:27:34.400Z,3.90
2018-12-03T23:30:10.561Z,4.00
2018-12-03T23:32:42.571Z,3.80
2018-12-03T23:35:16.901Z,3.70
2018-12-03T23:45:34.740Z,3.70
2018-12-03T23:48:08.580Z,3.60
2018-12-03T23:50:46.101Z,3.50
2018-12-03T23:55:52.540Z,3.50
2018-12-03T23:58:24.322Z,3.50
